createdAt,value
2022-09-05T00:02:49.034Z,14.31
2022-09-05T00:06:01.723Z,14.33
2022-09-05T00:08:57.082Z,14.39
2022-09-05T00:11:50.062Z,14.38
2022-09-05T00:15:14.911Z,14.36
2022-09-05T00:22:48.368Z,14.31
2022-09-05T00:24:37.053Z,14.21
2022-09-05T00:25:30.977Z,14.17
2022-09-05T00:28:26.287Z,14.21
2022-09-05T00:31:53.870Z,14.32
2022-09-05T00:34:59.812Z,14.36
2022-09-05T00:37:48.963Z,14.38
2022-09-05T00:40:41.135Z,14.37
2022-09-05T00:43:30.909Z,14.42
2022-09-05T00:46:23.518Z,14.45
2022-09-05T00:49:18.697Z,14.49
2022-09-05T00:52:16.339Z,14.52
2022-09-05T00:55:18.792Z,14.53
2022-09-05T00:58:20.197Z,14.49
2022-09-05T01:01:21.695Z,14.47
2022-09-05T01:04:26.036Z,14.37
2022-09-05T01:07:28.704Z,14.36
2022-09-05T01:10:23.898Z,14.28
2022-09-05T01:13:23.982Z,14.24
2022-09-05T01:16:22.821Z,14.23
2022-09-05T01:19:22.730Z,14.19
2022-09-05T01:22:37.431Z,14.08
2022-09-05T01:25:39.530Z,14.02
2022-09-05T01:29:17.757Z,13.98
2022-09-05T01:32:22.486Z,13.82
2022-09-05T01:36:04.022Z,13.71
2022-09-05T01:40:06.732Z,13.62
2022-09-05T01:42:20.216Z,13.60
2022-09-05T01:45:17.321Z,13.48
2022-09-05T01:48:07.050Z,13.38
2022-09-05T01:51:04.817Z,13.37
2022-09-05T01:53:59.443Z,13.49
2022-09-05T01:56:54.930Z,13.59
2022-09-05T01:59:49.542Z,13.58
2022-09-05T02:02:50.216Z,13.52
2022-09-05T02:06:06.715Z,13.55
2022-09-05T02:09:11.170Z,13.53
2022-09-05T02:11:59.882Z,13.48
2022-09-05T02:14:55.255Z,13.44
2022-09-05T02:17:52.698Z,13.37
2022-09-05T02:20:48.522Z,13.36
2022-09-05T02:23:42.578Z,13.30
2022-09-05T02:26:35.883Z,13.21
2022-09-05T02:29:29.961Z,13.13
2022-09-05T02:32:23.197Z,13.07
2022-09-05T02:35:22.017Z,13.01
2022-09-05T02:42:26.403Z,12.75
2022-09-05T02:45:16.670Z,12.85
2022-09-05T02:45:20.600Z,12.80
2022-09-05T02:48:14.980Z,12.71
2022-09-05T02:57:27.664Z,12.69
2022-09-05T02:57:37.219Z,12.80
2022-09-05T02:58:06.356Z,12.60
2022-09-05T03:01:03.506Z,12.53
2022-09-05T03:03:56.309Z,12.50
2022-09-05T03:06:57.292Z,12.43
2022-09-05T03:10:05.017Z,12.37
2022-09-05T03:13:25.356Z,12.32
2022-09-05T03:17:10.535Z,12.22
2022-09-05T03:20:41.739Z,12.15
2022-09-05T03:23:48.911Z,12.04
2022-09-05T03:27:07.086Z,12.00
2022-09-05T03:30:08.522Z,12.00
2022-09-05T03:33:36.985Z,11.94
2022-09-05T03:37:01.301Z,11.92
2022-09-05T03:40:15.822Z,11.87
2022-09-05T03:43:36.190Z,11.79
2022-09-05T03:46:41.026Z,11.68
2022-09-05T03:52:40.122Z,11.70
2022-09-05T03:57:14.834Z,11.57
2022-09-05T03:57:15.963Z,11.63
2022-09-05T04:00:08.996Z,11.58
2022-09-05T04:04:28.906Z,11.57
2022-09-05T04:08:16.352Z,11.59
2022-09-05T04:09:50.600Z,11.57
2022-09-05T04:12:50.460Z,11.52
2022-09-05T04:15:42.326Z,11.59
2022-09-05T04:18:35.351Z,11.60
2022-09-05T04:21:27.245Z,11.61
2022-09-05T04:24:23.266Z,11.64
2022-09-05T04:27:41.183Z,11.66
2022-09-05T04:30:41.319Z,11.67
2022-09-05T04:33:36.831Z,11.67
2022-09-05T04:36:28.297Z,11.62
2022-09-05T04:39:35.852Z,11.58
2022-09-05T04:42:26.041Z,11.55
2022-09-05T04:45:17.823Z,11.56
2022-09-05T04:48:20.368Z,11.71
2022-09-05T04:51:12.831Z,11.82
2022-09-05T04:54:19.458Z,11.94
2022-09-05T04:57:19.597Z,12.04
2022-09-05T05:06:03.838Z,12.19
2022-09-05T05:06:22.991Z,12.32
2022-09-05T05:06:44.998Z,12.39
2022-09-05T05:09:38.424Z,12.59
2022-09-05T05:17:57.194Z,13.35
2022-09-05T05:18:01.198Z,12.90
2022-09-05T05:19:18.655Z,13.64
2022-09-05T05:22:14.344Z,13.82
2022-09-05T05:25:02.904Z,13.80
2022-09-05T05:28:02.099Z,13.88
2022-09-05T05:31:12.583Z,13.84
2022-09-05T05:34:04.010Z,13.94
2022-09-05T05:37:18.308Z,13.93
2022-09-05T05:40:11.563Z,13.96
2022-09-05T05:43:17.089Z,14.04
2022-09-05T05:46:04.033Z,13.97
2022-09-05T05:49:05.051Z,14.07
2022-09-05T05:52:09.245Z,14.10
2022-09-05T05:55:42.241Z,14.19
2022-09-05T05:58:32.709Z,14.40
2022-09-05T06:01:50.361Z,14.58
2022-09-05T06:05:14.402Z,14.70
2022-09-05T06:09:58.851Z,14.82
2022-09-05T06:14:56.180Z,14.94
2022-09-05T06:15:27.879Z,15.01
2022-09-05T06:18:38.189Z,15.02
2022-09-05T06:22:10.132Z,15.04
2022-09-05T06:25:44.438Z,15.07
2022-09-05T06:28:59.450Z,15.17
2022-09-05T06:32:04.006Z,15.24
2022-09-05T06:35:32.677Z,15.36
2022-09-05T06:38:37.451Z,15.47
2022-09-05T06:41:38.335Z,15.58
2022-09-05T06:44:38.351Z,15.69
2022-09-05T06:47:34.357Z,15.60
2022-09-05T06:50:27.945Z,15.73
2022-09-05T06:53:53.440Z,15.80
2022-09-05T06:56:54.890Z,15.97
2022-09-05T07:00:22.480Z,16.12
2022-09-05T07:03:24.980Z,16.27
2022-09-05T07:06:19.785Z,16.46
2022-09-05T07:09:18.206Z,16.71
2022-09-05T07:12:17.991Z,16.79
2022-09-05T07:15:14.949Z,16.88
2022-09-05T07:18:13.622Z,16.99
2022-09-05T07:21:17.370Z,17.11
2022-09-05T07:24:11.317Z,17.23
2022-09-05T07:27:00.679Z,17.24
2022-09-05T07:30:00.753Z,17.37
2022-09-05T07:32:52.810Z,17.39
2022-09-05T07:35:41.760Z,17.59
2022-09-05T07:38:52.104Z,17.55
2022-09-05T07:41:39.686Z,17.60
2022-09-05T07:44:30.561Z,17.58
2022-09-05T07:47:23.693Z,17.74
2022-09-05T07:50:42.883Z,17.82
2022-09-05T07:57:00.668Z,18.15
2022-09-05T07:57:01.481Z,18.01
2022-09-05T07:59:53.603Z,18.16
2022-09-05T08:02:47.067Z,17.89
2022-09-05T08:05:41.570Z,18.16
2022-09-05T08:08:33.387Z,18.20
2022-09-05T08:11:26.033Z,18.26
2022-09-05T08:14:43.285Z,18.35
2022-09-05T08:17:30.231Z,18.45
2022-09-05T08:20:31.182Z,18.66
2022-09-05T08:23:40.195Z,18.82
2022-09-05T08:26:36.904Z,19.08
2022-09-05T08:29:32.367Z,19.24
2022-09-05T08:32:24.336Z,19.35
2022-09-05T08:35:18.374Z,19.61
2022-09-05T08:38:08.517Z,19.56
2022-09-05T08:41:06.446Z,19.59
2022-09-05T08:46:36.703Z,19.64
2022-09-05T08:47:19.526Z,19.69
2022-09-05T08:50:50.050Z,19.82
2022-09-05T08:53:54.147Z,19.84
2022-09-05T08:56:51.622Z,20.01
2022-09-05T09:00:18.387Z,20.26
2022-09-05T09:03:07.721Z,20.39
2022-09-05T09:06:22.314Z,20.28
2022-09-05T09:09:19.931Z,20.05
2022-09-05T09:12:16.119Z,20.12
2022-09-05T09:15:11.548Z,20.06
2022-09-05T09:17:59.838Z,20.09
2022-09-05T09:20:58.093Z,20.24
2022-09-05T09:23:50.340Z,20.42
2022-09-05T09:26:48.323Z,20.63
2022-09-05T09:29:39.874Z,20.71
2022-09-05T09:32:26.988Z,20.92
2022-09-05T09:35:21.502Z,21.12
2022-09-05T09:38:24.243Z,21.29
2022-09-05T09:41:52.828Z,21.39
2022-09-05T09:45:22.894Z,21.16
2022-09-05T09:48:40.650Z,21.06
2022-09-05T09:51:53.705Z,21.06
2022-09-05T09:55:31.312Z,21.14
2022-09-05T09:58:43.584Z,21.18
2022-09-05T10:01:38.496Z,21.05
2022-09-05T10:10:38.836Z,21.13
2022-09-05T10:10:52.715Z,21.19
2022-09-05T10:11:53.863Z,21.43
2022-09-05T10:15:31.536Z,21.72
2022-09-05T10:18:48.630Z,21.90
2022-09-05T10:25:28.743Z,22.24
2022-09-05T10:28:27.334Z,22.19
2022-09-05T10:33:27.083Z,22.36
2022-09-05T10:35:17.073Z,22.35
2022-09-05T10:37:42.413Z,22.52
2022-09-05T10:40:45.472Z,22.73
2022-09-05T10:43:51.222Z,22.76
2022-09-05T10:46:52.040Z,22.67
2022-09-05T10:49:44.576Z,22.80
2022-09-05T10:52:36.891Z,22.64
2022-09-05T10:55:26.717Z,22.77
2022-09-05T10:58:33.852Z,22.83
2022-09-05T11:02:29.618Z,22.82
2022-09-05T11:04:54.559Z,22.97
2022-09-05T11:07:48.859Z,22.84
2022-09-05T11:10:38.694Z,22.74
2022-09-05T11:13:46.021Z,22.69
2022-09-05T11:16:40.811Z,22.79
2022-09-05T11:19:36.546Z,22.76
2022-09-05T11:22:28.481Z,22.69
2022-09-05T11:25:28.216Z,22.82
2022-09-05T11:28:38.456Z,22.98
2022-09-05T11:33:47.163Z,23.03
2022-09-05T11:39:54.234Z,23.09
2022-09-05T11:40:08.377Z,23.16
2022-09-05T11:42:33.502Z,23.46
2022-09-05T11:45:49.766Z,23.48
2022-09-05T11:49:00.367Z,23.43
2022-09-05T11:52:22.058Z,23.28
2022-09-05T11:55:46.396Z,23.25
2022-09-05T11:59:07.249Z,23.09
2022-09-05T12:02:16.969Z,23.19
2022-09-05T12:05:49.739Z,23.36
2022-09-05T12:08:41.191Z,23.40
2022-09-05T12:11:46.534Z,23.47
2022-09-05T12:14:46.504Z,23.52
2022-09-05T12:17:58.421Z,23.63
2022-09-05T12:20:55.509Z,23.38
2022-09-05T12:24:12.695Z,23.19
2022-09-05T12:27:35.702Z,23.34
2022-09-05T12:30:15.692Z,23.43
2022-09-05T12:36:02.573Z,23.37
2022-09-05T12:40:56.096Z,23.11
2022-09-05T12:41:35.258Z,23.21
2022-09-05T12:44:06.065Z,23.41
2022-09-05T12:46:23.608Z,23.70
2022-09-05T12:49:18.030Z,23.94
2022-09-05T12:52:10.692Z,23.91
2022-09-05T12:55:01.989Z,23.72
2022-09-05T13:02:29.418Z,23.57
2022-09-05T13:03:08.114Z,23.48
2022-09-05T13:04:54.798Z,23.58
2022-09-05T13:07:48.280Z,23.85
2022-09-05T13:14:11.619Z,24.00
2022-09-05T13:14:48.233Z,24.06
2022-09-05T13:17:00.126Z,24.01
2022-09-05T13:19:52.188Z,24.08
2022-09-05T13:22:48.583Z,24.12
2022-09-05T13:25:37.330Z,24.25
2022-09-05T13:28:26.695Z,24.31
2022-09-05T13:37:56.190Z,24.38
2022-09-05T13:38:07.410Z,24.49
2022-09-05T13:38:15.189Z,24.56
2022-09-05T13:40:49.308Z,24.55
2022-09-05T13:43:38.471Z,24.34
2022-09-05T13:46:35.689Z,24.55
2022-09-05T13:49:29.667Z,24.68
2022-09-05T13:52:29.182Z,24.75
2022-09-05T13:55:24.611Z,24.70
2022-09-05T13:58:17.661Z,24.64
2022-09-05T14:01:21.892Z,24.66
2022-09-05T14:08:18.996Z,24.12
2022-09-05T14:11:44.824Z,23.89
2022-09-05T14:17:59.502Z,23.78
2022-09-05T14:21:13.215Z,23.90
2022-09-05T14:24:04.711Z,23.79
2022-09-05T14:26:56.567Z,23.63
2022-09-05T14:29:48.969Z,23.56
2022-09-05T14:37:36.273Z,23.60
2022-09-05T14:37:51.910Z,23.63
2022-09-05T14:40:00.242Z,23.66
2022-09-05T14:43:24.375Z,23.83
2022-09-05T14:46:34.232Z,23.84
2022-09-05T14:49:49.309Z,23.98
2022-09-05T14:57:23.068Z,23.93
2022-09-05T15:02:49.861Z,24.08
2022-09-05T15:02:52.713Z,24.01
2022-09-05T15:05:50.391Z,24.05
2022-09-05T15:11:53.589Z,24.04
2022-09-05T15:12:28.124Z,23.96
2022-09-05T15:15:00.569Z,23.98
2022-09-05T15:17:51.228Z,24.00
2022-09-05T15:20:39.447Z,23.91
2022-09-05T15:23:35.306Z,23.82
2022-09-05T15:26:25.856Z,23.69
2022-09-05T15:29:15.319Z,23.70
2022-09-05T15:32:14.524Z,23.59
2022-09-05T15:35:01.260Z,23.35
2022-09-05T15:37:50.257Z,22.98
2022-09-05T15:40:37.246Z,22.87
2022-09-05T15:43:25.472Z,23.00
2022-09-05T15:46:12.418Z,23.10
2022-09-05T15:49:00.136Z,23.05
2022-09-05T15:51:51.300Z,23.08
2022-09-05T15:54:40.589Z,23.13
2022-09-05T15:57:30.840Z,23.25
2022-09-05T16:00:51.503Z,23.26
2022-09-05T16:08:10.572Z,23.31
2022-09-05T16:10:28.967Z,23.33
2022-09-05T16:10:48.890Z,23.23
2022-09-05T16:13:14.103Z,23.14
2022-09-05T16:21:35.640Z,23.00
2022-09-05T16:23:24.446Z,22.74
2022-09-05T16:23:24.937Z,22.93
2022-09-05T16:25:42.072Z,22.62
2022-09-05T16:28:32.099Z,22.69
2022-09-05T16:31:26.871Z,22.51
2022-09-05T16:34:22.769Z,22.48
2022-09-05T16:37:15.098Z,22.38
2022-09-05T16:40:12.117Z,22.37
2022-09-05T16:43:05.518Z,22.13
2022-09-05T16:45:58.881Z,22.05
2022-09-05T16:48:55.062Z,22.06
2022-09-05T16:51:50.019Z,22.00
2022-09-05T16:54:42.802Z,21.94
2022-09-05T16:57:32.528Z,21.88
2022-09-05T17:00:19.263Z,21.77
2022-09-05T17:03:28.229Z,21.72
2022-09-05T17:06:26.394Z,21.71
2022-09-05T17:09:22.679Z,21.62
2022-09-05T17:12:18.044Z,21.53
2022-09-05T17:15:12.471Z,21.40
2022-09-05T17:18:22.202Z,21.32
2022-09-05T17:21:18.729Z,21.21
2022-09-05T17:29:16.925Z,21.21
2022-09-05T17:29:33.326Z,21.09
2022-09-05T17:34:49.749Z,20.81
2022-09-05T17:38:11.586Z,20.72
2022-09-05T17:41:19.745Z,20.56
2022-09-05T17:44:15.881Z,20.39
2022-09-05T17:47:15.239Z,20.22
2022-09-05T17:50:16.786Z,20.28
2022-09-05T17:53:26.647Z,20.24
2022-09-05T17:56:32.995Z,20.13
2022-09-05T17:59:28.910Z,19.97
2022-09-05T18:02:33.690Z,19.98
2022-09-05T18:06:03.966Z,19.81
2022-09-05T18:08:52.670Z,19.65
2022-09-05T18:11:44.948Z,19.24
2022-09-05T18:14:46.818Z,19.19
2022-09-05T18:18:05.620Z,18.95
2022-09-05T18:21:15.990Z,18.76
2022-09-05T18:24:15.320Z,18.59
2022-09-05T18:28:03.079Z,18.48
2022-09-05T18:33:54.480Z,18.18
2022-09-05T18:36:35.977Z,18.04
2022-09-05T18:39:43.249Z,17.91
2022-09-05T18:42:33.904Z,17.77
2022-09-05T18:45:28.428Z,17.63
2022-09-05T18:48:29.701Z,17.50
2022-09-05T18:51:22.072Z,17.41
2022-09-05T18:54:20.250Z,17.29
2022-09-05T18:57:28.425Z,17.18
2022-09-05T19:00:24.719Z,17.08
2022-09-05T19:03:27.956Z,17.00
2022-09-05T19:06:35.233Z,16.94
2022-09-05T19:09:28.583Z,16.81
2022-09-05T19:12:32.928Z,16.71
2022-09-05T19:15:24.870Z,16.64
2022-09-05T19:18:37.015Z,16.51
2022-09-05T19:21:23.792Z,16.50
2022-09-05T19:24:24.743Z,16.49
2022-09-05T19:28:17.283Z,16.48
2022-09-05T19:36:49.359Z,16.46
2022-09-05T19:37:05.765Z,16.45
2022-09-05T19:37:26.146Z,16.41
2022-09-05T19:45:39.394Z,16.48
2022-09-05T19:47:33.877Z,16.84
2022-09-05T19:47:35.036Z,16.66
2022-09-05T19:49:23.958Z,16.86
2022-09-05T19:52:16.907Z,17.06
2022-09-05T19:55:04.252Z,17.12
2022-09-05T19:58:05.239Z,17.11
2022-09-05T20:01:08.334Z,17.24
2022-09-05T20:03:56.360Z,17.28
2022-09-05T20:06:43.432Z,17.37
2022-09-05T20:09:30.208Z,17.33
2022-09-05T20:12:24.329Z,17.25
2022-09-05T20:15:22.991Z,17.19
2022-09-05T20:18:22.510Z,17.15
2022-09-05T20:21:17.876Z,17.07
2022-09-05T20:24:04.438Z,17.06
2022-09-05T20:26:51.444Z,17.07
2022-09-05T20:29:54.811Z,17.02
2022-09-05T20:32:46.156Z,16.99
2022-09-05T20:39:08.656Z,16.72
2022-09-05T20:43:14.801Z,16.63
2022-09-05T20:43:21.752Z,16.48
2022-09-05T20:45:02.241Z,16.37
2022-09-05T20:54:07.644Z,16.28
2022-09-05T20:54:28.653Z,16.36
2022-09-05T20:54:32.211Z,16.34
2022-09-05T20:57:16.779Z,16.37
2022-09-05T21:00:06.673Z,16.31
2022-09-05T21:02:56.111Z,16.25
2022-09-05T21:05:43.979Z,16.14
2022-09-05T21:08:34.768Z,15.88
2022-09-05T21:11:30.860Z,15.89
2022-09-05T21:14:20.672Z,15.86
2022-09-05T21:17:15.606Z,15.80
2022-09-05T21:20:08.769Z,15.64
2022-09-05T21:22:56.459Z,15.55
2022-09-05T21:25:53.819Z,15.56
2022-09-05T21:28:44.343Z,15.61
2022-09-05T21:31:33.827Z,15.61
2022-09-05T21:34:25.810Z,15.66
2022-09-05T21:37:13.329Z,15.74
2022-09-05T21:40:01.723Z,15.73
2022-09-05T21:44:37.862Z,15.72
2022-09-05T21:47:45.067Z,15.82
2022-09-05T21:49:03.934Z,15.84
2022-09-05T21:51:51.907Z,15.79
2022-09-05T21:59:17.124Z,15.87
2022-09-05T21:59:24.590Z,15.83
2022-09-05T22:00:57.000Z,15.81
2022-09-05T22:03:43.886Z,15.80
2022-09-05T22:06:33.245Z,15.83
2022-09-05T22:09:20.554Z,15.85
2022-09-05T22:12:29.894Z,15.83
2022-09-05T22:15:27.857Z,15.82
2022-09-05T22:18:18.165Z,15.75
2022-09-05T22:21:32.853Z,15.67
2022-09-05T22:24:14.761Z,15.70
2022-09-05T22:27:12.702Z,15.58
2022-09-05T22:30:00.025Z,15.68
2022-09-05T22:32:48.123Z,15.74
2022-09-05T22:35:35.333Z,15.64
2022-09-05T22:38:22.128Z,15.57
2022-09-05T22:41:08.990Z,15.55
2022-09-05T22:43:59.625Z,15.59
2022-09-05T22:46:46.360Z,15.59
2022-09-05T22:49:36.550Z,15.55
2022-09-05T22:52:23.284Z,15.60
2022-09-05T22:55:10.834Z,15.49
2022-09-05T22:57:57.352Z,15.50
2022-09-05T23:00:45.150Z,15.55
2022-09-05T23:03:31.975Z,15.50
2022-09-05T23:06:19.997Z,15.51
2022-09-05T23:09:06.843Z,15.47
2022-09-05T23:11:53.850Z,15.50
2022-09-05T23:14:40.454Z,15.40
2022-09-05T23:17:27.235Z,15.38
2022-09-05T23:20:14.524Z,15.24
2022-09-05T23:23:06.776Z,15.24
2022-09-05T23:25:53.420Z,15.22
2022-09-05T23:28:43.305Z,15.26
2022-09-05T23:31:30.132Z,15.29
2022-09-05T23:34:16.859Z,15.25
2022-09-05T23:37:04.026Z,15.21
2022-09-05T23:39:51.840Z,15.14
2022-09-05T23:42:39.654Z,15.26
2022-09-05T23:45:27.138Z,15.21
2022-09-05T23:48:13.756Z,15.11
2022-09-05T23:51:06.760Z,15.07
2022-09-05T23:53:53.584Z,15.07
2022-09-05T23:56:41.874Z,15.12
2022-09-05T23:59:29.060Z,14.95
